createdAt,value
2023-10-14T00:01:14.750Z,10.71
2023-10-14T00:03:43.202Z,10.70
2023-10-14T00:06:12.276Z,10.71
2023-10-14T00:08:49.568Z,10.73
2023-10-14T00:11:17.189Z,10.75
2023-10-14T00:13:49.447Z,10.78
2023-10-14T00:16:35.938Z,10.79
2023-10-14T00:19:05.356Z,10.77
2023-10-14T00:21:34.658Z,10.73
2023-10-14T00:24:04.878Z,10.69
2023-10-14T00:26:31.881Z,10.64
2023-10-14T00:29:26.010Z,10.57
2023-10-14T00:31:53.561Z,10.51
2023-10-14T00:34:25.943Z,10.47
2023-10-14T00:36:57.008Z,10.40
2023-10-14T00:39:32.828Z,10.35
2023-10-14T00:42:00.413Z,10.32
2023-10-14T00:44:28.943Z,10.29
2023-10-14T00:46:56.538Z,10.24
2023-10-14T00:49:35.434Z,10.19
2023-10-14T00:52:19.774Z,10.17
2023-10-14T00:54:47.717Z,10.13
2023-10-14T00:57:17.860Z,10.11
2023-10-14T00:59:48.343Z,10.06
2023-10-14T01:02:15.862Z,10.02
2023-10-14T01:04:48.198Z,10.01
2023-10-14T01:07:15.139Z,9.97
2023-10-14T01:09:42.442Z,9.91
2023-10-14T01:12:18.973Z,9.90
2023-10-14T01:14:47.691Z,9.89
2023-10-14T01:17:33.198Z,9.90
2023-10-14T01:20:06.951Z,9.90
2023-10-14T01:22:35.403Z,9.89
2023-10-14T01:25:06.629Z,9.86
2023-10-14T01:27:36.407Z,9.86
2023-10-14T01:30:10.869Z,9.84
2023-10-14T01:32:49.659Z,9.80
2023-10-14T01:35:35.759Z,9.77
2023-10-14T01:38:02.804Z,9.72
2023-10-14T01:40:38.267Z,9.68
2023-10-14T01:43:11.268Z,9.64
2023-10-14T01:46:01.491Z,9.62
2023-10-14T01:48:32.076Z,9.61
2023-10-14T01:50:59.688Z,9.61
2023-10-14T01:53:32.924Z,9.61
2023-10-14T01:56:01.300Z,9.60
2023-10-14T01:58:30.106Z,9.59
2023-10-14T02:01:13.811Z,9.57
2023-10-14T02:03:47.743Z,9.54
2023-10-14T02:06:19.627Z,9.51
2023-10-14T02:08:47.361Z,9.51
2023-10-14T02:11:17.320Z,9.50
2023-10-14T02:13:44.243Z,9.48
2023-10-14T02:16:11.502Z,9.47
2023-10-14T02:18:39.189Z,9.48
2023-10-14T02:21:07.833Z,9.47
2023-10-14T02:23:45.999Z,9.45
2023-10-14T02:26:28.139Z,9.43
2023-10-14T02:28:55.498Z,9.38
2023-10-14T02:31:29.453Z,9.35
2023-10-14T02:34:04.848Z,9.31
2023-10-14T02:36:36.224Z,9.22
2023-10-14T02:39:15.338Z,9.17
2023-10-14T02:41:58.559Z,9.13
2023-10-14T02:44:33.267Z,9.08
2023-10-14T02:47:09.814Z,9.06
2023-10-14T02:49:38.351Z,9.06
2023-10-14T02:52:12.227Z,9.06
2023-10-14T02:54:41.985Z,9.04
2023-10-14T02:57:15.565Z,9.02
2023-10-14T02:59:43.180Z,8.98
2023-10-14T03:02:14.378Z,8.95
2023-10-14T03:05:01.537Z,8.91
2023-10-14T03:07:34.223Z,8.86
2023-10-14T03:10:19.292Z,8.83
2023-10-14T03:12:50.130Z,8.79
2023-10-14T03:15:21.803Z,8.75
2023-10-14T03:17:54.031Z,8.70
2023-10-14T03:20:26.852Z,8.70
2023-10-14T03:22:55.272Z,8.69
2023-10-14T03:25:25.214Z,8.70
2023-10-14T03:27:59.596Z,8.70
2023-10-14T03:30:27.988Z,8.74
2023-10-14T03:32:55.885Z,8.77
2023-10-14T03:35:24.850Z,8.77
2023-10-14T03:37:59.306Z,8.76
2023-10-14T03:40:34.873Z,8.76
2023-10-14T03:43:10.308Z,8.76
2023-10-14T03:45:48.404Z,8.75
2023-10-14T03:48:16.145Z,8.75
2023-10-14T03:50:42.988Z,8.74
2023-10-14T03:53:10.950Z,8.73
2023-10-14T03:55:38.924Z,8.72
2023-10-14T03:58:05.907Z,8.72
2023-10-14T04:00:39.228Z,8.72
2023-10-14T04:03:12.839Z,8.72
2023-10-14T04:05:42.580Z,8.71
2023-10-14T04:08:09.429Z,8.73
2023-10-14T04:10:44.458Z,8.73
2023-10-14T04:13:14.557Z,8.72
2023-10-14T04:15:53.147Z,8.72
2023-10-14T04:18:26.528Z,8.71
2023-10-14T04:21:19.810Z,8.71
2023-10-14T04:24:05.646Z,8.70
2023-10-14T04:26:35.563Z,8.68
2023-10-14T04:29:04.560Z,8.69
2023-10-14T04:31:40.758Z,8.70
2023-10-14T04:34:09.111Z,8.71
2023-10-14T04:36:36.452Z,8.74
2023-10-14T04:39:16.817Z,8.79
2023-10-14T04:41:56.253Z,8.85
2023-10-14T04:44:24.741Z,8.91
2023-10-14T04:47:02.530Z,8.99
2023-10-14T04:49:52.318Z,9.06
2023-10-14T04:52:19.449Z,9.14
2023-10-14T04:55:26.868Z,9.20
2023-10-14T04:58:12.332Z,9.26
2023-10-14T05:00:44.434Z,9.31
2023-10-14T05:03:24.521Z,9.37
2023-10-14T05:05:56.938Z,9.43
2023-10-14T05:08:45.060Z,9.53
2023-10-14T05:11:14.025Z,9.66
2023-10-14T05:13:43.615Z,9.80
2023-10-14T05:16:17.297Z,9.96
2023-10-14T05:18:59.133Z,10.14
2023-10-14T05:21:44.995Z,10.35
2023-10-14T05:24:12.536Z,10.59
2023-10-14T05:26:47.505Z,10.79
2023-10-14T05:29:18.507Z,11.03
2023-10-14T05:31:46.900Z,11.25
2023-10-14T05:34:22.143Z,11.48
2023-10-14T05:36:56.464Z,11.70
2023-10-14T05:39:23.576Z,11.91
2023-10-14T05:41:56.790Z,12.13
2023-10-14T05:44:24.403Z,12.36
2023-10-14T05:46:51.367Z,12.58
2023-10-14T05:49:18.308Z,12.77
2023-10-14T05:51:45.205Z,12.96
2023-10-14T05:54:12.041Z,13.19
2023-10-14T05:56:40.267Z,13.41
2023-10-14T05:59:07.151Z,13.63
2023-10-14T06:01:36.875Z,13.86
2023-10-14T06:04:04.618Z,14.09
2023-10-14T06:06:32.462Z,14.28
2023-10-14T06:09:01.082Z,14.50
2023-10-14T06:11:27.996Z,14.77
2023-10-14T06:13:54.872Z,15.06
2023-10-14T06:16:21.871Z,15.35
2023-10-14T06:18:48.939Z,15.61
2023-10-14T06:21:15.916Z,15.87
2023-10-14T06:23:48.796Z,16.16
2023-10-14T06:26:18.528Z,16.49
2023-10-14T06:28:46.075Z,16.85
2023-10-14T06:31:13.667Z,17.19
2023-10-14T06:33:44.373Z,17.56
2023-10-14T06:36:14.895Z,17.97
2023-10-14T06:38:45.023Z,18.35
2023-10-14T06:41:12.629Z,18.68
2023-10-14T06:43:39.734Z,19.03
2023-10-14T06:46:06.963Z,19.40
2023-10-14T06:48:34.038Z,19.77
2023-10-14T06:51:01.856Z,20.14
2023-10-14T06:53:29.632Z,20.51
2023-10-14T06:55:58.869Z,20.84
2023-10-14T06:58:28.394Z,21.15
2023-10-14T07:00:57.038Z,21.46
2023-10-14T07:03:23.824Z,21.76
2023-10-14T07:05:56.387Z,22.07
2023-10-14T07:08:24.093Z,22.46
2023-10-14T07:10:51.461Z,22.89
2023-10-14T07:13:19.833Z,23.21
2023-10-14T07:15:46.574Z,23.45
2023-10-14T07:18:23.452Z,23.71
2023-10-14T07:20:57.229Z,23.86
2023-10-14T07:23:24.374Z,23.84
2023-10-14T07:25:53.052Z,23.78
2023-10-14T07:28:20.052Z,23.78
2023-10-14T07:30:47.401Z,23.85
2023-10-14T07:33:15.593Z,24.06
2023-10-14T07:35:42.887Z,24.33
2023-10-14T07:38:11.373Z,24.58
2023-10-14T07:40:39.275Z,24.82
2023-10-14T07:43:08.604Z,24.93
2023-10-14T07:45:36.717Z,24.96
2023-10-14T07:48:09.950Z,24.97
2023-10-14T07:50:37.886Z,24.96
2023-10-14T07:53:08.671Z,24.86
2023-10-14T07:55:38.951Z,24.93
2023-10-14T07:58:09.284Z,24.99
2023-10-14T08:00:40.044Z,24.99
2023-10-14T08:03:08.183Z,25.08
2023-10-14T08:05:36.469Z,25.16
2023-10-14T08:08:06.993Z,25.22
2023-10-14T08:10:33.938Z,25.34
2023-10-14T08:13:05.716Z,25.27
2023-10-14T08:15:32.994Z,25.36
2023-10-14T08:18:01.181Z,25.53
2023-10-14T08:20:29.096Z,25.59
2023-10-14T08:22:56.352Z,25.73
2023-10-14T08:25:25.660Z,25.87
2023-10-14T08:27:54.383Z,25.80
2023-10-14T08:30:24.752Z,25.63
2023-10-14T08:32:53.399Z,25.68
2023-10-14T08:35:21.291Z,25.84
2023-10-14T08:37:49.503Z,25.88
2023-10-14T08:40:23.261Z,25.83
2023-10-14T08:42:56.471Z,25.95
2023-10-14T08:45:26.679Z,26.08
2023-10-14T08:47:55.583Z,26.22
2023-10-14T08:50:24.538Z,26.40
2023-10-14T08:52:54.378Z,26.44
2023-10-14T08:55:21.449Z,26.35
2023-10-14T08:57:49.328Z,26.32
2023-10-14T09:00:21.107Z,26.37
2023-10-14T09:02:52.482Z,26.36
2023-10-14T09:05:20.017Z,26.30
2023-10-14T09:07:49.730Z,26.26
2023-10-14T09:10:19.051Z,26.28
2023-10-14T09:13:05.223Z,26.16
2023-10-14T09:15:33.413Z,26.28
2023-10-14T09:18:00.687Z,26.37
2023-10-14T09:20:33.957Z,26.54
2023-10-14T09:23:16.383Z,26.73
2023-10-14T09:25:50.481Z,26.88
2023-10-14T09:28:20.876Z,27.03
2023-10-14T09:30:51.611Z,27.22
2023-10-14T09:33:20.436Z,27.47
2023-10-14T09:35:51.481Z,27.55
2023-10-14T09:38:19.495Z,27.60
2023-10-14T09:40:54.383Z,27.58
2023-10-14T09:43:24.156Z,27.56
2023-10-14T09:45:55.932Z,27.73
2023-10-14T09:48:23.724Z,27.82
2023-10-14T09:50:51.496Z,27.84
2023-10-14T09:53:19.052Z,27.84
2023-10-14T09:55:47.187Z,27.76
2023-10-14T09:58:14.854Z,27.75
2023-10-14T10:00:41.994Z,27.92
2023-10-14T10:03:11.338Z,28.14
2023-10-14T10:05:40.439Z,28.21
2023-10-14T10:08:10.771Z,28.29
2023-10-14T10:10:38.111Z,28.45
2023-10-14T10:13:06.079Z,28.28
2023-10-14T10:15:36.003Z,28.17
2023-10-14T10:18:07.351Z,28.44
2023-10-14T10:20:36.409Z,28.92
2023-10-14T10:23:03.821Z,29.21
2023-10-14T10:25:51.572Z,29.14
2023-10-14T10:28:26.636Z,29.25
2023-10-14T10:30:55.016Z,29.35
2023-10-14T10:33:24.831Z,29.48
2023-10-14T10:36:17.642Z,29.61
2023-10-14T10:38:44.995Z,29.85
2023-10-14T10:41:25.666Z,29.88
2023-10-14T10:43:58.552Z,29.84
2023-10-14T10:46:46.432Z,29.97
2023-10-14T10:49:15.338Z,30.24
2023-10-14T10:51:48.371Z,30.29
2023-10-14T10:54:16.750Z,30.20
2023-10-14T10:56:53.845Z,30.23
2023-10-14T10:59:28.770Z,30.32
2023-10-14T11:01:57.710Z,30.35
2023-10-14T11:04:24.673Z,30.13
2023-10-14T11:06:52.381Z,30.09
2023-10-14T11:09:19.227Z,30.16
2023-10-14T11:11:46.374Z,30.14
2023-10-14T11:14:19.263Z,30.30
2023-10-14T11:16:49.917Z,30.73
2023-10-14T11:19:17.270Z,31.14
2023-10-14T11:21:44.411Z,31.12
2023-10-14T11:24:11.869Z,31.10
2023-10-14T11:26:38.842Z,31.15
2023-10-14T11:29:07.187Z,31.28
2023-10-14T11:31:34.923Z,31.56
2023-10-14T11:34:02.037Z,32.17
2023-10-14T11:36:29.054Z,32.82
2023-10-14T11:39:01.937Z,33.33
2023-10-14T11:41:28.781Z,33.85
2023-10-14T11:43:55.630Z,34.00
2023-10-14T11:46:22.989Z,34.08
2023-10-14T11:48:50.674Z,34.07
2023-10-14T11:51:20.503Z,34.20
2023-10-14T11:53:51.402Z,34.33
2023-10-14T11:56:18.359Z,34.57
2023-10-14T11:58:46.119Z,35.02
2023-10-14T12:01:13.226Z,35.45
2023-10-14T13:10:19.920Z,43.27
2023-10-14T13:12:51.083Z,43.35
2023-10-14T13:15:25.923Z,43.40
2023-10-14T13:17:56.729Z,43.39
2023-10-14T13:20:27.699Z,43.22
2023-10-14T13:22:55.117Z,43.30
2023-10-14T13:25:24.789Z,43.47
2023-10-14T13:27:52.399Z,43.65
2023-10-14T13:30:23.093Z,43.90
2023-10-14T13:32:57.151Z,44.11
2023-10-14T13:35:24.298Z,43.99
2023-10-14T13:37:51.298Z,43.75
2023-10-14T13:40:37.618Z,43.77
2023-10-14T13:43:09.466Z,43.83
2023-10-14T13:45:40.931Z,43.84
2023-10-14T13:48:08.766Z,43.73
2023-10-14T13:50:38.185Z,43.81
2023-10-14T13:53:09.807Z,43.85
2023-10-14T13:55:38.382Z,43.88
2023-10-14T13:58:12.007Z,43.73
2023-10-14T14:00:44.816Z,43.70
2023-10-14T14:03:12.850Z,43.58
2023-10-14T14:05:40.702Z,43.29
2023-10-14T14:08:08.408Z,43.18
2023-10-14T14:10:35.822Z,43.24
2023-10-14T14:13:03.509Z,43.33
2023-10-14T14:15:31.865Z,43.44
2023-10-14T14:17:59.659Z,43.55
2023-10-14T14:20:26.725Z,43.64
2023-10-14T14:22:56.123Z,43.46
2023-10-14T14:25:24.273Z,43.18
2023-10-14T14:27:52.071Z,42.90
2023-10-14T14:30:19.016Z,42.52
2023-10-14T14:32:46.188Z,42.20
2023-10-14T14:35:13.256Z,41.49
2023-10-14T14:37:40.886Z,41.02
2023-10-14T14:40:17.081Z,40.81
2023-10-14T14:42:45.725Z,40.57
2023-10-14T14:45:17.382Z,40.08
2023-10-14T14:47:44.470Z,39.29
2023-10-14T14:50:14.450Z,38.41
2023-10-14T14:52:42.173Z,37.53
2023-10-14T14:55:10.323Z,36.70
2023-10-14T14:57:39.506Z,36.01
2023-10-14T15:00:08.701Z,35.28
2023-10-14T15:02:36.067Z,34.54
2023-10-14T15:05:05.037Z,33.92
2023-10-14T15:07:35.335Z,33.30
2023-10-14T15:10:04.350Z,32.75
2023-10-14T15:12:33.286Z,32.32
2023-10-14T15:15:00.455Z,31.84
2023-10-14T15:17:29.405Z,31.39
2023-10-14T15:19:59.319Z,30.94
2023-10-14T15:22:26.152Z,30.40
2023-10-14T15:24:53.539Z,29.91
2023-10-14T15:27:21.590Z,29.41
2023-10-14T15:29:51.345Z,28.90
2023-10-14T15:32:18.259Z,28.42
2023-10-14T15:34:49.401Z,27.90
2023-10-14T15:37:19.547Z,27.40
2023-10-14T15:39:46.473Z,26.96
2023-10-14T15:42:13.407Z,26.54
2023-10-14T15:44:40.253Z,26.13
2023-10-14T15:47:08.064Z,25.78
2023-10-14T15:49:36.895Z,25.48
2023-10-14T15:52:04.488Z,25.19
2023-10-14T15:54:31.428Z,24.92
2023-10-14T15:56:58.308Z,24.68
2023-10-14T15:59:25.726Z,24.47
2023-10-14T16:01:52.674Z,24.27
2023-10-14T16:04:20.225Z,24.07
2023-10-14T16:06:47.083Z,23.88
2023-10-14T16:09:13.813Z,23.72
2023-10-14T16:11:40.477Z,23.54
2023-10-14T16:14:07.272Z,23.38
2023-10-14T16:16:33.973Z,23.25
2023-10-14T16:19:07.503Z,23.12
2023-10-14T16:21:36.039Z,22.97
2023-10-14T16:24:04.318Z,22.83
2023-10-14T16:26:31.151Z,22.70
2023-10-14T16:29:03.776Z,22.58
2023-10-14T16:31:31.468Z,22.46
2023-10-14T16:33:59.319Z,22.35
2023-10-14T16:36:27.845Z,22.24
2023-10-14T16:38:54.695Z,22.11
2023-10-14T16:41:21.738Z,21.98
2023-10-14T16:43:48.431Z,21.84
2023-10-14T16:46:15.577Z,21.68
2023-10-14T16:48:43.228Z,21.52
2023-10-14T16:51:10.962Z,21.36
2023-10-14T16:53:38.212Z,21.19
2023-10-14T16:56:12.225Z,21.02
2023-10-14T16:58:39.206Z,20.85
2023-10-14T17:01:06.300Z,20.70
2023-10-14T17:03:33.276Z,20.54
2023-10-14T17:06:00.171Z,20.41
2023-10-14T17:08:31.870Z,20.29
2023-10-14T17:10:58.760Z,20.16
2023-10-14T17:13:25.620Z,20.01
2023-10-14T17:15:54.619Z,19.86
2023-10-14T17:18:21.910Z,19.74
2023-10-14T17:20:48.694Z,19.62
2023-10-14T17:23:16.215Z,19.52
2023-10-14T17:25:43.194Z,19.46
2023-10-14T17:28:12.654Z,19.43
2023-10-14T17:30:41.048Z,19.36
2023-10-14T17:33:12.601Z,19.31
2023-10-14T17:35:42.520Z,19.24
2023-10-14T17:38:09.774Z,19.12
2023-10-14T17:40:39.892Z,18.96
2023-10-14T17:43:10.654Z,18.76
2023-10-14T17:45:39.689Z,18.54
2023-10-14T17:48:07.423Z,18.35
2023-10-14T17:50:35.780Z,18.17
2023-10-14T17:53:09.792Z,18.00
2023-10-14T17:55:37.389Z,17.85
2023-10-14T17:58:04.606Z,17.74
2023-10-14T18:00:31.755Z,17.67
2023-10-14T18:03:08.734Z,17.60
2023-10-14T18:05:49.568Z,17.52
2023-10-14T18:08:26.789Z,17.47
2023-10-14T18:10:58.141Z,17.46
2023-10-14T18:13:28.184Z,17.47
2023-10-14T18:15:58.908Z,17.46
2023-10-14T18:18:26.613Z,17.48
2023-10-14T18:20:54.635Z,17.48
2023-10-14T18:23:22.092Z,17.47
2023-10-14T18:25:56.928Z,17.47
2023-10-14T18:28:23.999Z,17.42
2023-10-14T18:30:52.189Z,17.37
2023-10-14T18:33:22.371Z,17.34
2023-10-14T18:35:50.684Z,17.30
2023-10-14T18:38:18.007Z,17.25
2023-10-14T18:40:48.256Z,17.23
2023-10-14T18:43:19.811Z,17.20
2023-10-14T18:45:51.205Z,17.18
2023-10-14T18:48:18.031Z,17.14
2023-10-14T18:50:45.028Z,17.09
2023-10-14T18:53:12.984Z,17.05
2023-10-14T18:55:41.308Z,17.01
2023-10-14T18:58:13.067Z,16.99
2023-10-14T19:00:43.937Z,16.98
2023-10-14T19:03:11.567Z,16.94
2023-10-14T19:05:39.275Z,16.90
2023-10-14T19:08:08.830Z,16.88
2023-10-14T19:10:39.948Z,16.87
2023-10-14T19:13:08.232Z,16.85
2023-10-14T19:15:39.994Z,16.82
2023-10-14T19:18:11.907Z,16.78
2023-10-14T19:20:40.647Z,16.69
2023-10-14T19:23:08.515Z,16.57
2023-10-14T19:25:36.707Z,16.49
2023-10-14T19:28:09.812Z,16.43
2023-10-14T19:30:40.606Z,16.37
2023-10-14T19:33:07.954Z,16.29
2023-10-14T19:35:39.394Z,16.24
2023-10-14T19:38:10.834Z,16.17
2023-10-14T19:40:39.078Z,16.10
2023-10-14T19:43:06.053Z,16.07
2023-10-14T19:45:33.367Z,16.03
2023-10-14T19:48:00.514Z,15.97
2023-10-14T19:50:30.874Z,15.92
2023-10-14T19:52:58.617Z,15.86
2023-10-14T19:55:28.546Z,15.80
2023-10-14T19:57:58.301Z,15.73
2023-10-14T20:00:28.582Z,15.69
2023-10-14T20:02:56.494Z,15.65
2023-10-14T20:05:23.826Z,15.60
2023-10-14T20:07:52.142Z,15.52
2023-10-14T20:10:19.980Z,15.44
2023-10-14T20:12:50.262Z,15.36
2023-10-14T20:15:20.896Z,15.31
2023-10-14T20:17:48.413Z,15.24
2023-10-14T20:20:18.051Z,15.18
2023-10-14T20:22:46.566Z,15.12
2023-10-14T20:25:19.404Z,15.07
2023-10-14T20:27:46.189Z,15.00
2023-10-14T20:30:13.450Z,14.92
2023-10-14T20:32:40.348Z,14.83
2023-10-14T20:35:07.807Z,14.76
2023-10-14T20:37:34.690Z,14.68
2023-10-14T20:40:01.596Z,14.60
2023-10-14T20:42:28.442Z,14.53
2023-10-14T20:44:56.020Z,14.47
2023-10-14T20:47:23.709Z,14.41
2023-10-14T20:49:51.472Z,14.37
2023-10-14T20:52:18.491Z,14.32
2023-10-14T20:54:45.468Z,14.29
2023-10-14T20:57:12.276Z,14.28
2023-10-14T20:59:38.955Z,14.27
2023-10-14T21:02:07.619Z,14.25
2023-10-14T21:04:34.467Z,14.24
2023-10-14T21:07:01.393Z,14.25
2023-10-14T21:09:30.890Z,14.24
2023-10-14T21:11:57.838Z,14.21
2023-10-14T21:14:24.869Z,14.22
2023-10-14T21:16:51.961Z,14.20
2023-10-14T21:19:21.420Z,14.19
2023-10-14T21:21:50.641Z,14.17
2023-10-14T21:24:17.492Z,14.15
2023-10-14T21:26:45.397Z,14.11
2023-10-14T21:29:13.839Z,14.07
2023-10-14T21:31:41.379Z,14.05
2023-10-14T21:34:08.455Z,14.01
2023-10-14T21:36:35.235Z,13.99
2023-10-14T21:39:02.031Z,13.97
2023-10-14T21:41:28.985Z,13.94
2023-10-14T21:43:56.892Z,13.90
2023-10-14T21:46:24.009Z,13.90
2023-10-14T21:48:50.956Z,13.88
2023-10-14T21:51:17.897Z,13.88
2023-10-14T21:53:44.985Z,13.85
2023-10-14T21:56:11.995Z,13.83
2023-10-14T21:58:40.648Z,13.79
2023-10-14T22:01:25.860Z,13.76
2023-10-14T22:03:53.462Z,13.70
2023-10-14T22:06:20.785Z,13.64
2023-10-14T22:08:47.626Z,13.58
2023-10-14T22:11:14.786Z,13.54
2023-10-14T22:13:41.753Z,13.52
2023-10-14T22:16:09.513Z,13.48
2023-10-14T22:18:37.119Z,13.47
2023-10-14T22:21:04.418Z,13.45
2023-10-14T22:23:31.569Z,13.44
2023-10-14T22:25:58.452Z,13.41
2023-10-14T22:28:25.275Z,13.40
2023-10-14T22:30:52.137Z,13.38
2023-10-14T22:33:19.118Z,13.35
2023-10-14T22:35:46.101Z,13.32
2023-10-14T22:38:13.401Z,13.29
2023-10-14T22:40:43.994Z,13.27
2023-10-14T22:43:11.342Z,13.30
2023-10-14T22:45:38.438Z,13.27
2023-10-14T22:48:06.449Z,13.26
2023-10-14T22:50:33.260Z,13.21
2023-10-14T22:53:00.064Z,13.17
2023-10-14T22:55:27.912Z,13.13
2023-10-14T22:57:55.819Z,13.10
2023-10-14T23:00:25.710Z,13.05
2023-10-14T23:02:56.352Z,13.00
2023-10-14T23:05:30.809Z,12.96
2023-10-14T23:07:59.212Z,12.93
2023-10-14T23:10:27.146Z,12.90
2023-10-14T23:12:54.024Z,12.90
2023-10-14T23:15:27.229Z,12.89
2023-10-14T23:17:54.219Z,12.89
2023-10-14T23:20:21.364Z,12.90
2023-10-14T23:22:49.874Z,12.88
2023-10-14T23:25:16.666Z,12.87
2023-10-14T23:27:43.591Z,12.85
2023-10-14T23:30:17.523Z,12.83
2023-10-14T23:32:44.955Z,12.81
2023-10-14T23:35:19.269Z,12.79
2023-10-14T23:37:49.490Z,12.76
2023-10-14T23:40:21.198Z,12.74
2023-10-14T23:42:48.423Z,12.73
2023-10-14T23:45:15.801Z,12.73
2023-10-14T23:47:43.425Z,12.71
2023-10-14T23:50:13.362Z,12.71
2023-10-14T23:52:51.490Z,12.68
2023-10-14T23:55:22.104Z,12.67
2023-10-14T23:57:49.792Z,12.65
